Valle Toledo, Valles Caldera, New Mexico Weather observations

Data are for 10 minute period ending at time listed.
 Day   Time   Solar   Ave.   Ave.  Ave.  Vector  Max.   Baro.   Total    
  of    of     Rad.   Air    Rel.  Wind   Wind   Wind  Press.  Precip.   
Year   Day            Temp.  Hum.  Speed  Dir.   Gust                    
2016   (MST)  Kw/m2    F      %     mph   deg.    mph    mb.     in.     
-------------------------------------------------------------------------
 344   18:30   0.00   28.7    66    3.3    46     4.2   734.0    0.00 
 344   18:40   0.00   28.5    66    3.6    38     4.8   734.2    0.00 
 344   18:50   0.00   28.2    66    3.5    39     5.4   734.2    0.00 
 344   19:00   0.00   28.2    66    3.8    46     4.8   734.2    0.00 
 344   19:10   0.00   28.0    65    3.5    53     4.8   734.2    0.00 
 344   19:20   0.00   27.7    65    3.6    45     4.8   734.1    0.00 
 344   19:30   0.00   27.1    66    3.8    40     4.8   734.1    0.00 
 344   19:40   0.00   27.0    66    3.9    40     4.8   734.1    0.00 
 344   19:50   0.00   27.0    65    4.1    39     4.8   734.1    0.00 
 344   20:00   0.00   27.1    64    4.3    38     4.8   734.1    0.00 
 344   20:10   0.00   26.9    65    4.1    38     5.4   734.1    0.00 
 344   20:20   0.00   26.8    65    4.1    37     4.8   734.1    0.00 
 344   20:30   0.00   26.7    65    4.2    36     5.4   734.1    0.00 
 344   20:40   0.00   26.9    65    4.4    34     5.4   734.1    0.00 
 344   20:50   0.00   27.1    65    4.1    41     5.4   734.1    0.00 
 344   21:00   0.00   26.9    65    3.8    46     4.8   734.1    0.00 
 344   21:10   0.00   26.7    66    4.4    41     5.4   734.1    0.00 
 344   21:20   0.00   26.8    66    4.4    39     5.4   734.1    0.00 
 344   21:30   0.00   26.8    66    4.2    37     5.4   734.1    0.00 
 344   21:40   0.00   26.7    67    4.4    39     5.4   734.1    0.00 
 344   21:50   0.00   26.7    67    4.0    37     4.8   734.1    0.00 
 344   22:00   0.00   26.5    68    3.3    47     4.8   734.1    0.00 
 344   22:10   0.00   26.3    69    2.7    40     3.6   734.1    0.00 
 344   22:20   0.00   26.2    70    3.9    43     5.4   734.1    0.00 
 344   22:30   0.00   26.5    70    3.7    41     5.4   734.1    0.00 
 344   22:40   0.00   26.5    71    3.1    36     4.8   734.1    0.00 
 344   22:50   0.00   26.5    72    3.0    53     4.8   734.1    0.00 
 344   23:00   0.00   27.2    72    3.6    58     4.8   734.1    0.00 
 344   23:10   0.00   27.6    71    3.3    60     6.6   734.1    0.00 
 344   23:20   0.00   27.5    72    3.1    71     6.0   734.1    0.00 
 344   23:30   0.00   28.3    71    4.0    50     5.4   734.1    0.00 
 344   23:40   0.00   27.6    73    4.7    41     6.0   734.0    0.00 
 344   23:50   0.00   27.0    74    4.1    44     5.4   733.9    0.00 
 345    0:00   0.00   27.1    76    3.0     6     5.4   733.9    0.00 
 345    0:10   0.00   27.2    76    2.8    14     4.2   733.8    0.00 
 345    0:20   0.00   28.2    76    3.6    38     6.0   733.7    0.00 
 345    0:30   0.00   29.0    71    3.8    34     7.2   733.6    0.00 
 345    0:40   0.00   26.6    77    3.3     6     5.4   733.5    0.00 
 345    0:50   0.00   26.2    80    3.3    33     4.8   733.6    0.00 
 345    1:00   0.00   26.6    80    2.4    37     4.2   733.6    0.00 
 345    1:10   0.00   26.6    79    2.7    56     4.8   733.5    0.00 
 345    1:20   0.00   27.2    77    2.8    58     4.2   733.4    0.00 
 345    1:30   0.00   26.9    78    2.6    28     4.2   733.5    0.00 
 345    1:40   0.00   27.1    77    3.0    53     4.8   733.5    0.00 
 345    1:50   0.00   27.3    77    2.5    50     4.2   733.6    0.00 
 345    2:00   0.00   27.1    77    3.3    36     4.8   733.5    0.00 
 345    2:10   0.00   27.3    76    3.2    29     4.8   733.5    0.00 
 345    2:20   0.00   26.9    76    3.0    26     4.2   733.4    0.00 
 345    2:30   0.00   26.8    76    2.8    31     4.8   733.6    0.00 
 345    2:40   0.00   26.5    75    3.4    25     4.8   733.7    0.00 
 345    2:50   0.00   26.4    76    3.7    42     5.4   733.6    0.00 
 345    3:00   0.00   26.4    76    3.6    39     4.8   733.5    0.00 
 345    3:10   0.00   26.5    76    3.3    38     4.8   733.4    0.00 
 345    3:20   0.00   27.4    76    3.6    53     4.8   733.2    0.00 
 345    3:30   0.00   27.2    75    3.9    40     4.8   733.2    0.00 
 345    3:40   0.00   27.0    76    3.8    38     4.8   733.1    0.00 
 345    3:50   0.00   26.9    76    4.0    40     4.8   733.1    0.00 
 345    4:00   0.00   27.0    76    3.9    37     6.0   733.0    0.00 
 345    4:10   0.00   27.4    77    4.3    32     5.4   733.0    0.00 
 345    4:20   0.00   27.1    74    3.5    22     4.8   733.0    0.00 
 345    4:30   0.00   26.8    79    3.8    26     4.8   732.9    0.00 
 345    4:40   0.00   27.7    78    3.7    32     4.8   732.8    0.00 
 345    4:50   0.00   28.1    76    3.4    32     5.4   732.7    0.00 
 345    5:00   0.00   27.3    77    3.3    26     5.4   732.8    0.00 
 345    5:10   0.00   27.5    78    2.7    24     5.4   732.8    0.00 
 345    5:20   0.00   27.4    76    2.8    61     4.2   732.7    0.00 
 345    5:30   0.00   26.8    76    4.0    26     5.4   732.8    0.00 
 345    5:40   0.00   26.9    75    3.0    48     5.4   732.8    0.00 
 345    5:50   0.00   26.6    74    3.5    38     4.8   732.8    0.00 
 345    6:00   0.00   27.0    75    3.2    42     4.8   732.8    0.00 
 345    6:10   0.00   26.7    74    3.5    32     5.4   732.9    0.00 
 345    6:20   0.00   26.4    76    3.4    30     5.4   732.9    0.00 
 345    6:30   0.00   26.5    75    2.5     8     4.2   732.9    0.00 
 345    6:40   0.00   25.9    77    2.5    10     4.8   732.9    0.00 
 345    6:50   0.00   26.4    77    2.6    52     4.8   732.9    0.00 
 345    7:00   0.00   26.6    75    3.0    26     5.4   732.8    0.00 
 345    7:10   0.00   26.3    73    4.0    26     6.0   732.8    0.00 
 345    7:20   0.01   26.6    73    2.6    41     4.2   732.8    0.00 
 345    7:30   0.01   27.1    72    1.9    21     3.6   732.7    0.00 
 345    7:40   0.02   27.1    70    1.7    53     3.0   732.6    0.00 
 345    7:50   0.03   30.5    60    2.2    40     3.6   732.5    0.00 
 345    8:00   0.02   30.6    59    2.3    46     3.6   732.4    0.00 
 345    8:10   0.02   29.8    60    2.6    36     3.6   732.3    0.00 
 345    8:20   0.02   30.4    59    2.9    36     3.6   732.2    0.00 
 345    8:30   0.02   31.2    58    2.3   344     3.6   732.2    0.00 
 345    8:40   0.10   31.4    59    1.8   325     3.6   732.3    0.00 
 345    8:50   0.06   33.1    58    2.0   317     6.6   732.2    0.00 
 345    9:00   0.21   35.9    54    3.2   309     5.4   732.2    0.00 
 345    9:10   0.35   40.2    47    3.2   314     6.0   732.2    0.00 
 345    9:20   0.37   43.0    43    3.8   304     8.4   732.3    0.00 
 345    9:30   0.39   44.8    41    4.0   309     7.2   732.3    0.00 
 345    9:40   0.42   46.6    38    3.9   302     6.6   732.2    0.00 
 345    9:50   0.45   46.9    38    4.3   303     7.2   732.1    0.00 
 345   10:00   0.47   47.3    37    5.1   297     7.8   732.0    0.00 
 345   10:10   0.49   45.8    38    5.4   295    10.8   731.9    0.00 
 345   10:20   0.51   44.9    40    5.1   286    10.2   731.8    0.00 
 345   10:30   0.53   44.7    38    5.6   275    11.9   731.9    0.00 
 345   10:40   0.54   44.1    38    6.6   283    11.3   731.9    0.00 
 345   10:50   0.56   44.6    36    5.8   288    11.3   731.7    0.00 
 345   11:00   0.57   45.4    34    6.0   285    10.2   731.6    0.00 
 345   11:10   0.58   45.8    33    5.3   279     9.6   731.5    0.00 
 345   11:20   0.59   46.6    32    6.1   274    12.5   731.3    0.00 
 345   11:30   0.60   45.1    32    6.6   255    12.5   731.2    0.00 
 345   11:40   0.61   45.9    30    7.7   267    16.1   731.1    0.00 
 345   11:50   0.56   45.4    28    7.8   266    16.7   731.0    0.00 
 345   12:00   0.62   45.8    27    8.2   257    15.5   730.7    0.00 
 345   12:10   0.56   45.4    27    8.5   259    16.7   730.6    0.00 
 345   12:20   0.60   46.1    26    8.9   268    16.7   730.4    0.00 
 345   12:30   0.48   45.7    25    8.6   254    15.5   730.3    0.00 
 345   12:40   0.39   44.8    25    8.8   262    15.5   730.1    0.00 
 345   12:50   0.62   46.1    24    8.5   263    19.7   730.0    0.00 
 345   13:00   0.69   46.8    23    8.7   260    17.3   729.9    0.00 
 345   13:10   0.66   47.0    23   10.1   262    18.5   729.8    0.00 
 345   13:20   0.54   46.6    23    9.5   267    16.1   729.7    0.00 
 345   13:30   0.48   45.8    23   10.2   262    19.1   729.7    0.00 
 345   13:40   0.62   46.1    23    9.3   264    19.7   729.6    0.00 
 345   13:50   0.53   46.5    23    8.6   271    16.7   729.5    0.00 
 345   14:00   0.49   45.9    23    9.5   268    17.3   729.3    0.00 
 345   14:10   0.42   45.3    24    9.8   273    17.9   729.4    0.00 
 345   14:20   0.46   45.8    24    9.7   265    17.9   729.2    0.00 
 345   14:30   0.43   46.5    23   10.2   272    20.9   729.2    0.00 
 345   14:40   0.41   46.8    22   10.8   273    24.5   729.1    0.00 
 345   14:50   0.38   46.8    21   10.3   270    19.1   729.0    0.00 
 345   15:00   0.34   47.0    22    9.3   276    20.3   729.0    0.00 
 345   15:10   0.32   47.3    22    9.5   281    16.7   729.0    0.00 
 345   15:20   0.29   47.0    21   12.3   283    22.7   729.0    0.00 
 345   15:30   0.24   46.0    22    9.7   275    20.3   729.0    0.00 
 345   15:40   0.21   45.8    24    9.1   281    21.5   729.0    0.00 
 345   15:50   0.20   45.9    23    9.1   283    17.9   729.0    0.00 
 345   16:00   0.17   45.8    24    6.7   277    10.8   729.0    0.00 
 345   16:10   0.14   45.4    25    5.9   277    13.1   729.0    0.00 
 345   16:20   0.08   44.3    26    6.8   272    15.5   728.8    0.00 
 345   16:30   0.04   42.4    28    4.9   274     9.6   728.7    0.00 
 345   16:40   0.02   41.4    28    6.3   280    11.9   728.6    0.00 
 345   16:50   0.01   40.9    29    5.7   294     9.6   728.6    0.00 
 345   17:00   0.00   39.8    31    4.9   295     9.6   728.4    0.00 
 345   17:10   0.00   39.1    31    5.4   307    10.2   728.3    0.00 
 345   17:20   0.00   38.4    32    5.4   315     8.4   728.2    0.00 
 345   17:30   0.00   38.6    32    5.6   300    10.2   728.2    0.00 
 345   17:40   0.00   38.8    32    5.9   294    13.7   728.3    0.00 
 345   17:50   0.00   38.7    32    6.2   297    12.5   728.4    0.00 
 345   18:00   0.00   38.7    32    6.2   295    13.7   728.4    0.00 
 345   18:10   0.00   38.2    34    5.3   300     8.4   728.5    0.00 
 345   18:20   0.00   38.0    34    5.1   296    11.3   728.5    0.00 

Return to Valle Toledo, Valles Caldera graphs page.


Western Regional Climate Center,wrcc@dri.edu